createdAt,value
2022-08-04T00:01:21.523Z,1.70
2022-08-04T00:03:56.451Z,1.45
2022-08-04T00:06:35.820Z,1.67
2022-08-04T00:09:09.037Z,1.10
2022-08-04T00:11:40.205Z,1.55
2022-08-04T00:14:14.704Z,1.60
2022-08-04T00:16:44.705Z,1.25
2022-08-04T00:19:17.378Z,1.25
2022-08-04T00:21:52.409Z,1.55
2022-08-04T00:24:23.029Z,1.80
2022-08-04T00:26:54.491Z,1.35
2022-08-04T00:29:24.567Z,1.45
2022-08-04T00:31:54.963Z,1.60
2022-08-04T00:34:27.580Z,1.33
2022-08-04T00:36:56.261Z,1.70
2022-08-04T00:39:24.647Z,1.48
2022-08-04T00:42:10.826Z,1.95
2022-08-04T00:44:55.977Z,1.40
2022-08-04T00:47:40.356Z,1.50
2022-08-04T00:50:13.426Z,1.70
2022-08-04T00:52:54.936Z,1.52
2022-08-04T00:55:51.759Z,1.73
2022-08-04T00:58:35.594Z,3.03
2022-08-04T01:01:07.466Z,2.00
2022-08-04T01:03:51.358Z,2.08
2022-08-04T01:06:31.536Z,1.17
2022-08-04T01:09:12.323Z,1.50
2022-08-04T01:12:13.649Z,1.60
2022-08-04T01:14:52.742Z,1.40
2022-08-04T01:17:26.507Z,1.50
2022-08-04T01:20:01.228Z,1.58
2022-08-04T01:22:51.467Z,1.58
2022-08-04T01:25:39.945Z,1.65
2022-08-04T01:28:29.091Z,1.55
2022-08-04T01:31:03.714Z,1.60
2022-08-04T01:33:58.580Z,1.75
2022-08-04T01:36:26.196Z,1.42
2022-08-04T01:38:55.793Z,1.48
2022-08-04T01:41:32.464Z,1.48
2022-08-04T01:44:02.440Z,1.70
2022-08-04T01:46:34.921Z,1.80
2022-08-04T01:49:03.907Z,1.90
2022-08-04T01:51:35.970Z,1.85
2022-08-04T01:54:03.683Z,1.67
2022-08-04T01:56:32.297Z,1.80
2022-08-04T01:59:03.859Z,1.77
2022-08-04T02:01:37.459Z,1.50
2022-08-04T02:04:18.728Z,1.80
2022-08-04T02:06:58.849Z,1.60
2022-08-04T02:09:54.398Z,1.50
2022-08-04T02:12:28.365Z,1.40
2022-08-04T02:15:03.951Z,1.90
2022-08-04T02:17:42.392Z,1.80
2022-08-04T02:20:13.923Z,1.40
2022-08-04T02:22:48.656Z,1.63
2022-08-04T02:25:23.441Z,1.35
2022-08-04T02:28:20.372Z,1.80
2022-08-04T02:30:54.953Z,2.63
2022-08-04T02:33:30.635Z,2.70
2022-08-04T02:36:02.418Z,2.30
2022-08-04T02:38:54.099Z,2.78
2022-08-04T02:41:24.052Z,2.85
2022-08-04T02:43:56.162Z,1.60
2022-08-04T02:46:25.109Z,1.52
2022-08-04T02:48:55.969Z,1.85
2022-08-04T02:51:25.821Z,1.50
2022-08-04T02:53:57.299Z,1.48
2022-08-04T02:56:26.109Z,1.50
2022-08-04T02:58:57.485Z,1.63
2022-08-04T03:01:25.306Z,1.45
2022-08-04T03:04:12.318Z,1.80
2022-08-04T03:07:14.290Z,2.00
2022-08-04T03:10:17.991Z,1.75
2022-08-04T03:13:03.409Z,3.58
2022-08-04T03:15:56.820Z,2.33
2022-08-04T03:18:57.208Z,2.17
2022-08-04T03:22:02.610Z,1.75
2022-08-04T03:25:05.434Z,1.80
2022-08-04T03:28:13.424Z,1.80
2022-08-04T03:30:59.324Z,2.10
2022-08-04T03:33:45.735Z,1.90
2022-08-04T03:36:48.720Z,1.73
2022-08-04T03:40:01.432Z,1.70
2022-08-04T03:42:53.091Z,2.08
2022-08-04T03:46:00.550Z,1.73
2022-08-04T03:48:57.100Z,1.70
2022-08-04T03:52:01.536Z,1.80
2022-08-04T03:55:20.067Z,2.22
2022-08-04T03:58:16.653Z,1.95
2022-08-04T04:00:57.528Z,1.58
2022-08-04T04:03:50.066Z,1.80
2022-08-04T04:06:48.960Z,1.80
2022-08-04T04:09:56.661Z,1.85
2022-08-04T04:12:48.290Z,1.63
2022-08-04T04:15:28.881Z,1.80
2022-08-04T04:18:17.612Z,1.80
2022-08-04T04:20:58.991Z,1.58
2022-08-04T04:23:41.639Z,2.33
2022-08-04T04:26:33.392Z,2.83
2022-08-04T04:29:19.128Z,1.98
2022-08-04T04:32:00.382Z,2.40
2022-08-04T04:34:45.871Z,2.28
2022-08-04T04:37:22.007Z,3.35
2022-08-04T04:40:09.268Z,2.67
2022-08-04T04:42:49.617Z,2.05
2022-08-04T04:45:25.733Z,2.50
2022-08-04T04:48:08.834Z,1.98
2022-08-04T04:50:48.276Z,1.88
2022-08-04T04:53:21.683Z,2.15
2022-08-04T04:58:36.968Z,1.50
2022-08-04T05:01:34.283Z,2.25
2022-08-04T05:04:16.849Z,2.40
2022-08-04T05:07:07.419Z,1.95
2022-08-04T05:09:52.110Z,2.10
2022-08-04T05:14:30.815Z,1.70
2022-08-04T05:15:28.872Z,1.65
2022-08-04T05:17:59.853Z,2.08
2022-08-04T05:20:32.019Z,2.22
2022-08-04T05:23:03.457Z,1.88
2022-08-04T05:25:36.485Z,2.17
2022-08-04T05:28:10.947Z,2.13
2022-08-04T05:30:48.314Z,2.00
2022-08-04T05:33:24.846Z,2.22
2022-08-04T05:36:19.194Z,1.83
2022-08-04T05:38:52.000Z,2.05
2022-08-04T05:41:20.755Z,2.00
2022-08-04T05:43:49.985Z,1.90
2022-08-04T05:46:18.896Z,2.08
2022-08-04T05:48:48.552Z,2.15
2022-08-04T05:51:17.205Z,2.22
2022-08-04T05:53:47.075Z,2.20
2022-08-04T05:56:16.230Z,1.98
2022-08-04T05:58:45.693Z,2.10
2022-08-04T06:01:15.709Z,2.10
2022-08-04T06:03:44.900Z,1.98
2022-08-04T06:06:15.251Z,1.42
2022-08-04T06:08:43.057Z,2.00
2022-08-04T06:11:13.328Z,2.17
2022-08-04T06:13:50.093Z,2.10
2022-08-04T06:16:30.152Z,2.33
2022-08-04T06:20:03.911Z,1.88
2022-08-04T06:21:53.743Z,1.90
2022-08-04T06:24:24.585Z,1.83
2022-08-04T06:26:52.861Z,1.70
2022-08-04T06:29:24.721Z,3.35
2022-08-04T06:32:27.107Z,13.35
2022-08-04T06:35:02.502Z,29.20
2022-08-04T06:37:42.346Z,15.18
2022-08-04T06:40:30.484Z,4.35
2022-08-04T06:43:01.654Z,16.10
2022-08-04T06:45:29.811Z,6.13
2022-08-04T06:47:58.137Z,2.22
2022-08-04T06:51:26.910Z,1.92
2022-08-04T06:53:16.003Z,3.58
2022-08-04T06:55:45.775Z,10.50
2022-08-04T06:58:14.477Z,3.20
2022-08-04T07:00:44.289Z,4.82
2022-08-04T07:03:12.566Z,2.65
2022-08-04T07:05:41.870Z,2.17
2022-08-04T07:08:11.259Z,2.00
2022-08-04T07:10:40.859Z,1.85
2022-08-04T07:13:09.414Z,1.90
2022-08-04T07:15:39.945Z,1.80
2022-08-04T07:18:07.592Z,1.77
2022-08-04T07:20:36.954Z,1.40
2022-08-04T07:23:06.472Z,1.73
2022-08-04T07:25:59.866Z,1.90
2022-08-04T07:28:27.267Z,1.88
2022-08-04T07:30:56.820Z,1.67
2022-08-04T07:33:25.767Z,1.75
2022-08-04T07:36:09.038Z,1.75
2022-08-04T07:38:48.756Z,2.20
2022-08-04T07:41:38.695Z,1.85
2022-08-04T07:44:08.634Z,1.60
2022-08-04T07:46:36.705Z,1.70
2022-08-04T07:49:05.166Z,1.60
2022-08-04T07:51:35.209Z,1.70
2022-08-04T07:54:03.883Z,1.60
2022-08-04T07:56:32.281Z,1.70
2022-08-04T07:59:01.341Z,1.80
2022-08-04T08:01:30.884Z,1.60
2022-08-04T08:04:00.510Z,1.83
2022-08-04T08:06:32.713Z,1.90
2022-08-04T08:09:13.357Z,2.05
2022-08-04T08:12:36.638Z,1.67
2022-08-04T08:14:31.364Z,1.90
2022-08-04T08:17:02.264Z,2.20
2022-08-04T08:19:30.373Z,1.80
2022-08-04T08:22:00.608Z,1.73
2022-08-04T08:24:30.043Z,1.90
2022-08-04T08:26:58.139Z,1.90
2022-08-04T08:29:27.125Z,2.30
2022-08-04T08:31:59.527Z,1.88
2022-08-04T08:34:33.474Z,1.75
2022-08-04T08:37:08.753Z,1.92
2022-08-04T08:39:40.804Z,2.08
2022-08-04T08:42:48.051Z,2.08
2022-08-04T08:45:51.265Z,2.20
2022-08-04T08:48:41.771Z,1.58
2022-08-04T08:51:32.370Z,2.22
2022-08-04T08:54:36.261Z,1.92
2022-08-04T08:57:21.025Z,1.83
2022-08-04T09:00:06.037Z,1.92
2022-08-04T09:03:06.294Z,2.15
2022-08-04T09:05:56.351Z,2.75
2022-08-04T09:08:49.086Z,2.08
2022-08-04T09:11:21.826Z,1.90
2022-08-04T09:13:55.392Z,1.80
2022-08-04T09:16:32.282Z,1.98
2022-08-04T09:19:05.361Z,1.73
2022-08-04T09:24:36.858Z,1.80
2022-08-04T09:27:03.201Z,2.03
2022-08-04T09:29:41.048Z,1.98
2022-08-04T09:32:15.100Z,1.70
2022-08-04T09:35:03.273Z,1.50
2022-08-04T09:37:46.084Z,1.75
2022-08-04T09:40:31.454Z,1.88
2022-08-04T09:43:21.553Z,1.67
2022-08-04T09:46:00.063Z,1.58
2022-08-04T09:48:36.197Z,2.05
2022-08-04T09:51:15.317Z,1.92
2022-08-04T09:53:53.697Z,1.70
2022-08-04T09:56:29.228Z,1.80
2022-08-04T09:59:09.076Z,1.60
2022-08-04T10:01:39.489Z,1.63
2022-08-04T10:04:12.058Z,1.58
2022-08-04T10:07:10.561Z,1.90
2022-08-04T10:09:51.232Z,1.48
2022-08-04T10:12:36.577Z,1.83
2022-08-04T10:15:16.037Z,1.70
2022-08-04T10:18:03.662Z,1.52
2022-08-04T10:21:06.209Z,1.80
2022-08-04T10:23:56.567Z,2.00
2022-08-04T10:26:37.648Z,1.70
2022-08-04T10:29:11.989Z,1.63
2022-08-04T10:31:45.739Z,1.77
2022-08-04T10:34:18.864Z,1.83
2022-08-04T10:36:54.419Z,2.42
2022-08-04T10:39:42.743Z,1.90
2022-08-04T10:42:20.232Z,1.80
2022-08-04T10:44:59.504Z,1.55
2022-08-04T10:47:34.749Z,1.80
2022-08-04T10:50:03.770Z,1.27
2022-08-04T10:52:34.999Z,1.70
2022-08-04T10:55:09.352Z,1.60
2022-08-04T10:57:40.595Z,1.80
2022-08-04T11:00:14.703Z,1.60
2022-08-04T11:02:51.978Z,1.42
2022-08-04T11:05:26.435Z,1.75
2022-08-04T11:08:00.983Z,1.55
2022-08-04T11:10:34.049Z,1.52
2022-08-04T11:13:06.676Z,1.55
2022-08-04T11:15:55.356Z,1.63
2022-08-04T11:18:33.324Z,1.60
2022-08-04T11:21:08.795Z,1.20
2022-08-04T11:23:40.205Z,1.20
2022-08-04T11:26:14.043Z,1.15
2022-08-04T11:28:58.461Z,1.17
2022-08-04T11:31:37.077Z,1.00
2022-08-04T11:34:15.789Z,1.38
2022-08-04T11:36:50.592Z,1.15
2022-08-04T11:39:28.564Z,1.10
2022-08-04T11:42:01.343Z,1.02
2022-08-04T11:47:05.687Z,1.33
2022-08-04T11:49:56.677Z,1.40
2022-08-04T11:52:27.918Z,1.17
2022-08-04T11:54:57.016Z,0.80
2022-08-04T11:57:35.126Z,0.98
2022-08-04T12:00:07.713Z,1.00
2022-08-04T12:03:12.030Z,1.20
2022-08-04T12:05:53.444Z,1.10
2022-08-04T12:08:34.229Z,1.20
2022-08-04T12:11:22.613Z,0.80
2022-08-04T12:14:05.282Z,0.85
2022-08-04T12:19:15.372Z,1.00
2022-08-04T12:21:53.141Z,1.00
2022-08-04T12:24:29.310Z,0.98
2022-08-04T12:26:59.367Z,1.10
2022-08-04T12:29:32.448Z,0.88
2022-08-04T12:32:08.290Z,1.30
2022-08-04T12:34:41.640Z,1.08
2022-08-04T12:37:21.977Z,1.52
2022-08-04T12:40:28.980Z,1.00
2022-08-04T12:42:56.413Z,0.90
2022-08-04T12:45:28.676Z,0.90
2022-08-04T12:47:59.872Z,0.82
2022-08-04T12:50:28.001Z,1.00
2022-08-04T12:53:03.538Z,1.10
2022-08-04T12:55:34.815Z,1.10
2022-08-04T12:58:03.743Z,0.85
2022-08-04T13:00:41.730Z,0.88
2022-08-04T13:03:13.122Z,0.88
2022-08-04T13:05:42.696Z,0.90
2022-08-04T13:08:13.565Z,1.35
2022-08-04T13:10:43.585Z,0.80
2022-08-04T13:13:17.664Z,1.20
2022-08-04T13:15:56.483Z,0.85
2022-08-04T13:18:30.028Z,0.70
2022-08-04T13:21:20.133Z,0.80
2022-08-04T13:26:55.135Z,0.88
2022-08-04T13:30:00.675Z,1.02
2022-08-04T13:32:17.841Z,0.90
2022-08-04T13:34:49.142Z,0.80
2022-08-04T13:37:22.128Z,0.70
2022-08-04T13:39:55.217Z,0.90
2022-08-04T13:42:26.617Z,1.42
2022-08-04T13:44:58.201Z,2.03
2022-08-04T13:47:30.784Z,1.20
2022-08-04T13:50:12.119Z,0.88
2022-08-04T13:52:41.459Z,0.80
2022-08-04T13:55:20.424Z,0.90
2022-08-04T13:57:51.675Z,1.00
2022-08-04T14:00:29.217Z,0.93
2022-08-04T14:03:01.943Z,1.42
2022-08-04T14:05:36.908Z,1.10
2022-08-04T14:08:25.393Z,1.10
2022-08-04T14:10:58.589Z,0.93
2022-08-04T14:13:41.510Z,0.75
2022-08-04T14:16:18.269Z,1.08
2022-08-04T14:18:47.016Z,0.77
2022-08-04T14:21:16.475Z,0.77
2022-08-04T14:23:48.211Z,1.00
2022-08-04T14:29:27.890Z,1.15
2022-08-04T14:32:03.228Z,0.90
2022-08-04T14:34:33.520Z,1.13
2022-08-04T14:37:16.960Z,0.90
2022-08-04T14:40:19.112Z,0.93
2022-08-04T14:42:55.376Z,1.10
2022-08-04T14:45:31.839Z,0.80
2022-08-04T14:48:00.484Z,0.85
2022-08-04T14:50:36.908Z,0.90
2022-08-04T14:53:07.091Z,0.80
2022-08-04T14:55:37.351Z,1.00
2022-08-04T14:58:35.741Z,0.80
2022-08-04T15:00:57.331Z,1.52
2022-08-04T15:03:25.637Z,1.02
2022-08-04T15:06:00.772Z,1.00
2022-08-04T15:08:32.267Z,0.70
2022-08-04T15:11:02.987Z,0.80
2022-08-04T15:13:33.267Z,0.75
2022-08-04T15:16:07.986Z,0.60
2022-08-04T15:18:39.546Z,0.80
2022-08-04T15:21:08.608Z,0.50
2022-08-04T15:23:39.344Z,0.60
2022-08-04T15:28:40.731Z,0.88
2022-08-04T15:32:04.522Z,1.38
2022-08-04T15:33:58.639Z,0.70
2022-08-04T15:36:36.015Z,1.00
2022-08-04T15:39:11.569Z,1.63
2022-08-04T15:41:55.254Z,1.50
2022-08-04T15:44:58.547Z,3.10
2022-08-04T15:47:28.019Z,1.77
2022-08-04T15:50:07.735Z,1.77
2022-08-04T15:53:12.429Z,1.98
2022-08-04T15:55:43.166Z,1.70
2022-08-04T15:58:12.914Z,5.28
2022-08-04T16:01:15.368Z,2.50
2022-08-04T16:03:53.166Z,2.20
2022-08-04T16:06:45.147Z,1.67
2022-08-04T16:09:45.782Z,1.75
2022-08-04T16:12:54.530Z,1.60
2022-08-04T16:15:38.188Z,1.48
2022-08-04T16:18:12.113Z,1.35
2022-08-04T16:20:47.419Z,1.30
2022-08-04T16:24:06.071Z,1.13
2022-08-04T16:26:54.850Z,1.25
2022-08-04T16:29:45.368Z,1.10
2022-08-04T16:32:22.063Z,0.85
2022-08-04T16:34:56.384Z,1.08
2022-08-04T16:37:31.415Z,0.95
2022-08-04T16:40:37.062Z,1.00
2022-08-04T16:43:08.781Z,1.15
2022-08-04T16:45:50.993Z,2.28
2022-08-04T16:48:20.111Z,0.88
2022-08-04T16:50:54.128Z,0.77
2022-08-04T16:54:02.763Z,0.80
2022-08-04T16:56:15.248Z,0.80
2022-08-04T16:58:53.106Z,0.90
2022-08-04T17:01:32.653Z,0.90
2022-08-04T17:04:04.933Z,1.55
2022-08-04T17:06:35.648Z,0.75
2022-08-04T17:09:11.401Z,0.88
2022-08-04T17:11:39.294Z,1.17
2022-08-04T17:14:07.872Z,2.97
2022-08-04T17:16:39.179Z,1.02
2022-08-04T17:19:20.367Z,1.00
2022-08-04T17:22:02.322Z,0.80
2022-08-04T17:24:34.115Z,0.68
2022-08-04T17:27:02.125Z,0.80
2022-08-04T17:29:42.830Z,1.00
2022-08-04T17:32:18.588Z,0.90
2022-08-04T17:34:50.842Z,0.70
2022-08-04T17:37:41.142Z,1.00
2022-08-04T17:40:13.945Z,0.98
2022-08-04T17:42:42.470Z,1.15
2022-08-04T17:48:02.964Z,0.77
2022-08-04T17:50:35.715Z,0.90
2022-08-04T17:53:12.200Z,0.70
2022-08-04T17:55:43.461Z,0.90
2022-08-04T17:58:21.573Z,0.85
2022-08-04T18:01:10.750Z,1.50
2022-08-04T18:03:53.428Z,1.80
2022-08-04T18:06:25.504Z,1.85
2022-08-04T18:08:58.009Z,1.23
2022-08-04T18:11:29.767Z,0.88
2022-08-04T18:14:10.638Z,1.38
2022-08-04T18:16:46.337Z,2.25
2022-08-04T18:19:18.713Z,2.20
2022-08-04T18:21:59.250Z,2.10
2022-08-04T18:24:35.148Z,1.70
2022-08-04T18:27:21.792Z,1.58
2022-08-04T18:30:14.609Z,1.80
2022-08-04T18:32:37.425Z,1.10
2022-08-04T18:35:19.340Z,0.95
2022-08-04T18:38:06.466Z,1.60
2022-08-04T18:40:52.306Z,1.70
2022-08-04T18:43:28.748Z,1.27
2022-08-04T18:45:59.585Z,1.35
2022-08-04T18:48:36.075Z,1.70
2022-08-04T18:51:10.734Z,1.73
2022-08-04T18:53:55.117Z,1.40
2022-08-04T18:56:29.771Z,1.85
2022-08-04T19:02:12.673Z,1.50
2022-08-04T19:04:32.829Z,1.27
2022-08-04T19:07:29.531Z,1.40
2022-08-04T19:12:39.761Z,2.58
2022-08-04T19:15:11.473Z,1.75
2022-08-04T19:17:53.532Z,1.75
2022-08-04T19:20:26.555Z,1.65
2022-08-04T19:24:10.651Z,1.90
2022-08-04T19:26:03.950Z,2.00
2022-08-04T19:28:35.416Z,1.70
2022-08-04T19:31:06.174Z,1.75
2022-08-04T19:33:58.590Z,3.00
2022-08-04T19:36:27.897Z,2.20
2022-08-04T19:39:11.632Z,1.95
2022-08-04T19:42:06.567Z,4.35
2022-08-04T19:44:30.234Z,1.60
2022-08-04T19:47:00.462Z,1.58
2022-08-04T19:50:03.814Z,1.58
2022-08-04T19:52:33.658Z,1.73
2022-08-04T19:55:09.923Z,1.90
2022-08-04T19:57:43.916Z,1.60
2022-08-04T20:00:17.349Z,1.92
2022-08-04T20:03:02.907Z,1.60
2022-08-04T20:05:52.652Z,1.52
2022-08-04T20:08:23.978Z,1.70
2022-08-04T20:10:54.749Z,1.73
2022-08-04T20:13:25.539Z,1.55
2022-08-04T20:16:01.441Z,1.52
2022-08-04T20:18:35.685Z,1.30
2022-08-04T20:21:11.275Z,1.48
2022-08-04T20:23:50.009Z,1.23
2022-08-04T20:26:17.892Z,1.23
2022-08-04T20:28:45.862Z,1.48
2022-08-04T20:31:18.333Z,1.45
2022-08-04T20:33:49.377Z,1.33
2022-08-04T20:36:21.675Z,1.38
2022-08-04T20:38:52.657Z,1.45
2022-08-04T20:41:20.867Z,1.50
2022-08-04T20:47:54.016Z,1.48
2022-08-04T20:50:29.524Z,1.60
2022-08-04T20:52:58.486Z,1.58
2022-08-04T20:55:26.566Z,1.63
2022-08-04T20:58:02.617Z,1.55
2022-08-04T21:00:31.320Z,1.50
2022-08-04T21:02:59.056Z,1.42
2022-08-04T21:05:28.337Z,1.50
2022-08-04T21:07:57.265Z,1.50
2022-08-04T21:10:25.759Z,1.23
2022-08-04T21:12:54.262Z,1.45
2022-08-04T21:15:25.513Z,1.48
2022-08-04T21:20:43.392Z,1.50
2022-08-04T21:23:11.111Z,1.60
2022-08-04T21:25:43.637Z,1.88
2022-08-04T21:28:11.837Z,1.60
2022-08-04T21:30:54.245Z,1.90
2022-08-04T21:33:24.560Z,1.73
2022-08-04T21:36:13.910Z,1.67
2022-08-04T21:38:41.964Z,1.73
2022-08-04T21:41:24.310Z,1.58
2022-08-04T21:43:52.912Z,1.90
2022-08-04T21:46:20.955Z,1.50
2022-08-04T21:48:49.278Z,1.50
2022-08-04T21:51:56.832Z,1.55
2022-08-04T21:54:09.840Z,1.60
2022-08-04T21:56:42.863Z,1.50
2022-08-04T21:59:23.532Z,1.60
2022-08-04T22:01:58.086Z,1.52
2022-08-04T22:04:28.093Z,1.80
2022-08-04T22:06:57.028Z,1.73
2022-08-04T22:09:24.660Z,1.40
2022-08-04T22:11:56.537Z,1.60
2022-08-04T22:14:29.060Z,1.58
2022-08-04T22:22:25.397Z,1.58
2022-08-04T22:24:54.825Z,1.65
2022-08-04T22:27:36.420Z,1.50
2022-08-04T22:30:13.362Z,1.20
2022-08-04T22:32:45.341Z,1.70
2022-08-04T22:35:36.169Z,1.98
2022-08-04T22:38:07.842Z,1.60
2022-08-04T22:40:57.249Z,1.30
2022-08-04T22:43:33.315Z,1.65
2022-08-04T22:46:05.322Z,1.50
2022-08-04T22:48:34.762Z,1.60
2022-08-04T22:51:04.447Z,1.75
2022-08-04T22:53:35.565Z,1.73
2022-08-04T22:56:09.574Z,1.50
2022-08-04T22:58:39.924Z,1.30
2022-08-04T23:01:08.623Z,1.80
2022-08-04T23:03:38.602Z,1.65
2022-08-04T23:06:10.866Z,1.40
2022-08-04T23:08:46.487Z,1.40
2022-08-04T23:11:14.673Z,1.50
2022-08-04T23:13:42.628Z,1.20
2022-08-04T23:16:11.036Z,1.20
2022-08-04T23:18:42.171Z,1.55
2022-08-04T23:23:55.642Z,1.40
2022-08-04T23:26:30.575Z,1.30
2022-08-04T23:28:58.573Z,1.45
2022-08-04T23:31:40.546Z,1.60
2022-08-04T23:34:12.062Z,1.45
2022-08-04T23:36:40.583Z,1.40
2022-08-04T23:39:09.577Z,1.20
2022-08-04T23:41:53.987Z,1.33
2022-08-04T23:44:25.119Z,1.42
2022-08-04T23:46:58.864Z,1.30
2022-08-04T23:52:23.550Z,1.50
2022-08-04T23:55:00.043Z,1.55
2022-08-04T23:57:31.530Z,1.30
